Time;durP1;ratioP1;P1;durP2;ratioP2;P2;SDS_P1;SDS_P2;PMS_P1;PMS_P2;Temp;Humidity;BMP_temperature;BMP_pressure;BME280_temperature;BME280_humidity;BME280_pressure;Samples;Min_cycle;Max_cycle;Signal;HPM_P1;HPM_P2
2023/09/11 00:00:43;;;;;;;12.10;5.77;;;20.60;77.90;;;;;;5021012;28;20034;-82
2023/09/11 00:03:10;;;;;;;7.90;4.43;;;20.40;79.30;;;;;;5022290;28;20292;-81
2023/09/11 00:05:38;;;;;;;11.00;6.13;;;20.20;79.40;;;;;;5019827;28;20045;-85
2023/09/11 00:08:11;;;;;;;14.85;5.20;;;20.30;79.60;;;;;;5022860;28;20452;-83
2023/09/11 00:10:40;;;;;;;8.45;4.57;;;20.40;79.40;;;;;;5019164;28;20034;-85
2023/09/11 00:13:11;;;;;;;7.43;4.10;;;20.10;80.80;;;;;;5025261;28;20084;-79
2023/09/11 00:15:38;;;;;;;8.07;4.65;;;20.00;81.00;;;;;;5023840;28;20046;-84
2023/09/11 00:18:05;;;;;;;6.93;4.55;;;20.00;81.50;;;;;;5024078;28;20416;-84
2023/09/11 00:20:32;;;;;;;9.20;4.82;;;20.10;81.40;;;;;;5007607;28;20052;-85
2023/09/11 00:22:59;;;;;;;9.77;4.97;;;20.50;80.80;;;;;;5020184;28;20282;-82
2023/09/11 00:25:28;;;;;;;9.18;4.50;;;20.90;80.00;;;;;;5017679;28;20042;-86
2023/09/11 00:27:56;;;;;;;8.07;4.78;;;20.90;79.70;;;;;;5015940;28;20072;-82
2023/09/11 00:30:23;;;;;;;7.95;5.13;;;20.70;80.00;;;;;;5022816;28;20041;-81
2023/09/11 00:32:50;;;;;;;9.52;4.88;;;20.20;81.20;;;;;;5020214;28;20509;-81
2023/09/11 00:35:18;;;;;;;11.45;4.38;;;20.10;81.70;;;;;;5023629;28;20062;-80
2023/09/11 00:37:45;;;;;;;9.52;4.72;;;19.90;82.00;;;;;;5023083;28;20434;-79
2023/09/11 00:40:13;;;;;;;13.20;4.78;;;20.30;81.90;;;;;;5017807;28;20457;-79
2023/09/11 00:42:40;;;;;;;8.38;5.07;;;20.70;80.80;;;;;;5022159;28;20050;-81
2023/09/11 00:45:07;;;;;;;9.35;5.00;;;20.80;80.70;;;;;;5023372;28;20116;-82
2023/09/11 00:47:35;;;;;;;9.48;4.72;;;20.90;80.90;;;;;;5018485;28;20401;-80
2023/09/11 00:50:02;;;;;;;9.95;5.10;;;20.80;80.60;;;;;;5020469;28;20038;-81
2023/09/11 00:52:32;;;;;;;8.70;4.95;;;20.80;80.80;;;;;;5020892;28;20057;-79
2023/09/11 00:55:00;;;;;;;10.35;5.43;;;20.80;79.90;;;;;;5019491;28;20029;-83
2023/09/11 00:57:28;;;;;;;6.90;4.50;;;20.40;80.30;;;;;;5022582;28;20498;-83
2023/09/11 00:59:55;;;;;;;10.93;4.95;;;20.00;81.90;;;;;;5019977;28;20739;-80
2023/09/11 01:02:23;;;;;;;8.40;4.75;;;20.10;82.10;;;;;;5021414;28;20054;-78
2023/09/11 01:04:51;;;;;;;8.90;4.85;;;20.60;81.60;;;;;;5037272;28;20393;-81
2023/09/11 01:07:18;;;;;;;8.70;4.60;;;20.70;81.50;;;;;;5013575;28;20045;-81
2023/09/11 01:09:45;;;;;;;10.35;4.68;;;20.60;81.90;;;;;;5037097;28;20104;-80
2023/09/11 01:12:12;;;;;;;7.38;4.38;;;20.60;82.30;;;;;;5017851;28;20033;-78
2023/09/11 01:14:40;;;;;;;8.68;4.80;;;20.60;82.10;;;;;;5016519;28;20409;-80
2023/09/11 01:17:24;;;;;;;8.38;4.82;;;20.60;82.50;;;;;;5021277;28;20115;-80
2023/09/11 01:20:00;;;;;;;8.82;4.63;;;20.40;82.80;;;;;;5019316;28;20497;-80
2023/09/11 01:22:59;;;;;;;10.18;4.97;;;20.40;83.00;;;;;;5019517;28;20568;-79
2023/09/11 01:25:52;;;;;;;9.27;4.32;;;20.10;83.70;;;;;;5006435;28;20419;-80
2023/09/11 01:28:46;;;;;;;11.63;4.80;;;20.00;83.50;;;;;;5016225;28;20046;-80
2023/09/11 01:31:15;;;;;;;8.32;5.13;;;20.00;84.00;;;;;;5017187;28;20030;-80
2023/09/11 01:33:42;;;;;;;7.15;4.57;;;20.00;84.50;;;;;;5021206;28;20379;-79
2023/09/11 01:36:10;;;;;;;7.47;4.90;;;20.20;83.80;;;;;;5018249;28;20046;-82
2023/09/11 01:38:39;;;;;;;8.85;5.20;;;20.40;83.00;;;;;;5022842;28;20053;-81
2023/09/11 01:41:07;;;;;;;7.20;4.63;;;20.40;82.90;;;;;;5017783;28;20060;-81
2023/09/11 01:43:39;;;;;;;8.25;4.57;;;20.10;83.90;;;;;;5021785;28;20064;-79
2023/09/11 01:46:06;;;;;;;9.15;4.82;;;20.00;84.80;;;;;;5017695;28;20041;-80
2023/09/11 01:48:36;;;;;;;8.02;5.13;;;19.90;85.00;;;;;;5018613;28;20105;-79
2023/09/11 01:51:05;;;;;;;7.75;4.20;;;19.80;86.10;;;;;;5020644;28;20439;-78
2023/09/11 01:53:32;;;;;;;10.13;4.60;;;19.70;85.60;;;;;;5020246;28;20056;-78
2023/09/11 01:56:00;;;;;;;7.28;4.65;;;19.70;86.00;;;;;;5011891;28;20129;-79
2023/09/11 01:58:27;;;;;;;6.93;4.95;;;19.60;86.30;;;;;;5020891;28;20042;-78
2023/09/11 02:00:55;;;;;;;9.15;4.93;;;19.70;86.10;;;;;;5019101;28;20490;-76
2023/09/11 02:03:22;;;;;;;8.68;4.45;;;19.60;85.30;;;;;;5013616;28;20053;-77
2023/09/11 02:05:49;;;;;;;9.05;4.40;;;19.50;85.60;;;;;;5019804;28;20087;-78
2023/09/11 02:08:16;;;;;;;7.30;4.10;;;19.20;86.60;;;;;;5020934;28;20038;-78
2023/09/11 02:10:44;;;;;;;10.18;4.80;;;19.30;87.20;;;;;;5019686;28;20156;-77
2023/09/11 02:13:11;;;;;;;7.40;4.18;;;19.40;87.40;;;;;;5021102;28;20524;-78
2023/09/11 02:15:38;;;;;;;7.18;4.45;;;19.30;87.90;;;;;;5018938;28;20034;-80
2023/09/11 02:18:05;;;;;;;8.43;4.20;;;19.20;87.50;;;;;;5002326;28;20512;-83
2023/09/11 02:20:32;;;;;;;6.35;4.20;;;19.20;86.90;;;;;;5014503;28;20034;-81
2023/09/11 02:23:00;;;;;;;7.38;4.55;;;19.30;86.30;;;;;;5016462;28;20053;-82
2023/09/11 02:25:28;;;;;;;10.35;4.93;;;19.40;86.30;;;;;;5004477;28;20042;-82
2023/09/11 02:27:55;;;;;;;7.32;4.45;;;19.30;86.50;;;;;;5015253;28;20034;-80
2023/09/11 02:30:22;;;;;;;9.65;4.68;;;19.10;87.40;;;;;;5016374;28;20060;-81
2023/09/11 02:32:49;;;;;;;6.75;4.20;;;19.10;87.80;;;;;;5017358;28;20430;-81
2023/09/11 02:35:17;;;;;;;10.30;4.72;;;18.80;88.30;;;;;;5020301;28;20099;-80
2023/09/11 02:37:44;;;;;;;8.32;4.15;;;18.70;89.40;;;;;;5000892;28;20510;-82
2023/09/11 02:40:11;;;;;;;8.52;4.63;;;18.80;89.30;;;;;;5017792;28;20063;-81
2023/09/11 02:42:38;;;;;;;6.97;4.30;;;18.70;89.70;;;;;;5019327;28;20053;-82
2023/09/11 02:45:06;;;;;;;6.90;4.55;;;18.90;90.10;;;;;;5023923;28;20063;-82
2023/09/11 02:47:33;;;;;;;8.68;4.40;;;18.80;90.00;;;;;;5019655;28;20125;-82
2023/09/11 02:50:00;;;;;;;8.65;4.70;;;18.90;90.00;;;;;;5020964;28;20060;-80
2023/09/11 02:52:27;;;;;;;9.20;4.40;;;18.80;90.20;;;;;;5020340;28;20057;-80
2023/09/11 02:54:55;;;;;;;7.28;4.82;;;18.60;90.40;;;;;;5033532;28;20401;-81
2023/09/11 02:57:22;;;;;;;9.65;5.40;;;18.30;91.20;;;;;;5020227;28;20057;-80
2023/09/11 02:59:54;;;;;;;9.95;5.00;;;18.20;91.90;;;;;;5020766;28;20397;-80
2023/09/11 03:02:22;;;;;;;8.63;4.90;;;18.40;91.50;;;;;;5017424;28;20053;-83
2023/09/11 03:04:52;;;;;;;9.65;5.03;;;18.30;91.60;;;;;;5018927;28;20045;-81
2023/09/11 03:07:20;;;;;;;11.05;5.25;;;18.40;91.60;;;;;;5020323;28;20053;-82
2023/09/11 03:09:47;;;;;;;11.93;5.35;;;18.50;91.40;;;;;;5017359;28;20041;-82
2023/09/11 03:12:14;;;;;;;9.25;5.13;;;18.60;91.60;;;;;;5004015;28;20049;-80
2023/09/11 03:14:42;;;;;;;8.25;5.30;;;18.50;91.30;;;;;;5021902;28;20042;-82
2023/09/11 03:17:10;;;;;;;8.25;5.45;;;18.50;91.50;;;;;;5001448;28;20038;-81
2023/09/11 03:19:37;;;;;;;11.32;5.68;;;18.10;92.60;;;;;;5019234;28;20033;-81
2023/09/11 03:22:06;;;;;;;9.23;5.72;;;17.80;93.00;;;;;;5020417;28;20053;-83
2023/09/11 03:24:33;;;;;;;13.68;5.78;;;18.30;92.60;;;;;;4998660;28;20401;-80
2023/09/11 03:27:01;;;;;;;8.20;5.35;;;18.30;92.80;;;;;;5022874;28;20037;-79
2023/09/11 03:29:28;;;;;;;11.02;5.82;;;18.30;92.90;;;;;;5020263;28;20053;-80
2023/09/11 03:31:55;;;;;;;9.48;4.88;;;18.20;93.10;;;;;;5004007;28;20041;-80
2023/09/11 03:34:22;;;;;;;8.23;5.38;;;18.60;93.00;;;;;;5020485;28;20060;-80
2023/09/11 03:36:50;;;;;;;10.48;5.80;;;18.60;93.00;;;;;;5020820;28;20046;-82
2023/09/11 03:39:17;;;;;;;8.88;5.82;;;18.70;92.90;;;;;;5023534;28;20034;-83
2023/09/11 03:41:44;;;;;;;8.90;5.55;;;18.60;93.00;;;;;;5018900;28;20141;-80
2023/09/11 03:44:12;;;;;;;9.68;5.18;;;18.60;93.30;;;;;;5021067;28;20394;-80
2023/09/11 03:46:39;;;;;;;8.30;5.25;;;18.50;93.40;;;;;;5020462;28;20457;-80
2023/09/11 03:49:06;;;;;;;8.73;5.47;;;18.40;93.80;;;;;;5019041;28;20061;-80
2023/09/11 03:51:33;;;;;;;11.68;5.47;;;18.40;93.90;;;;;;5019906;28;20049;-80
2023/09/11 03:54:07;;;;;;;15.05;6.90;;;18.30;93.80;;;;;;5017636;28;20038;-79
2023/09/11 03:56:35;;;;;;;9.43;5.30;;;18.30;93.80;;;;;;5017461;28;20121;-79
2023/09/11 03:59:03;;;;;;;7.20;5.05;;;18.40;93.60;;;;;;5015388;28;20037;-79
2023/09/11 04:01:30;;;;;;;11.80;7.15;;;18.20;93.70;;;;;;5019390;28;20081;-78
2023/09/11 04:03:57;;;;;;;10.15;5.93;;;18.10;94.10;;;;;;4982413;28;20054;-78
2023/09/11 04:06:25;;;;;;;10.90;5.97;;;18.10;94.30;;;;;;5019548;28;20567;-78
2023/09/11 04:08:52;;;;;;;8.77;5.88;;;18.30;94.50;;;;;;4999971;28;20080;-78
2023/09/11 04:11:19;;;;;;;10.48;6.13;;;18.10;94.80;;;;;;5017198;28;20038;-78
2023/09/11 04:13:46;;;;;;;13.13;5.43;;;18.10;94.70;;;;;;5020699;28;20133;-80
2023/09/11 04:16:15;;;;;;;13.75;6.28;;;18.10;95.00;;;;;;5016714;28;20037;-78
2023/09/11 04:18:42;;;;;;;13.00;6.75;;;18.10;94.80;;;;;;5017494;28;20057;-78
2023/09/11 04:21:10;;;;;;;10.07;6.10;;;18.00;95.20;;;;;;5020308;28;20112;-79
2023/09/11 04:23:38;;;;;;;9.10;6.35;;;18.10;95.30;;;;;;5015989;28;20489;-79
2023/09/11 04:26:06;;;;;;;9.20;5.53;;;18.20;95.10;;;;;;5014424;28;20791;-80
2023/09/11 04:28:35;;;;;;;11.40;5.40;;;18.30;94.90;;;;;;5021546;28;20037;-81
2023/09/11 04:31:03;;;;;;;11.48;6.30;;;18.30;94.90;;;;;;5016865;28;20073;-80
2023/09/11 04:33:30;;;;;;;11.68;5.45;;;18.50;95.10;;;;;;5022446;28;20046;-81
2023/09/11 04:35:57;;;;;;;10.82;6.25;;;18.10;95.40;;;;;;5010696;28;20860;-78
2023/09/11 04:38:25;;;;;;;10.93;5.68;;;18.30;95.50;;;;;;5027602;28;20118;-79
2023/09/11 04:40:56;;;;;;;9.40;5.70;;;18.20;95.60;;;;;;5016835;28;20057;-80
2023/09/11 04:43:24;;;;;;;13.55;5.88;;;18.30;95.60;;;;;;5016539;28;20396;-80
2023/09/11 04:45:51;;;;;;;9.43;5.97;;;18.20;95.50;;;;;;5021914;28;20061;-78
2023/09/11 04:48:18;;;;;;;10.45;6.28;;;18.30;95.90;;;;;;5018653;28;20509;-78
2023/09/11 04:50:46;;;;;;;11.57;6.30;;;18.30;95.80;;;;;;5020372;28;20045;-75
2023/09/11 04:53:13;;;;;;;97.00;58.60;;;18.20;96.10;;;;;;5021363;28;20116;-75
2023/09/11 04:55:40;;;;;;;190.60;116.53;;;18.30;96.20;;;;;;5021305;28;20412;-75
2023/09/11 04:58:07;;;;;;;21.27;15.20;;;18.40;95.90;;;;;;5019669;28;20038;-77
2023/09/11 05:00:35;;;;;;;14.48;8.40;;;18.40;95.70;;;;;;5019766;28;20491;-76
2023/09/11 05:03:02;;;;;;;13.50;8.10;;;18.40;95.80;;;;;;5016741;28;20042;-75
2023/09/11 05:05:38;;;;;;;16.73;10.70;;;18.20;96.10;;;;;;5014059;28;20553;-85
2023/09/11 05:08:06;;;;;;;18.95;9.55;;;18.20;96.60;;;;;;5014992;28;20042;-77
2023/09/11 05:10:33;;;;;;;19.92;12.18;;;18.20;96.90;;;;;;5003874;28;20072;-78
2023/09/11 05:13:01;;;;;;;20.58;10.95;;;18.60;96.70;;;;;;4999140;28;20053;-78
2023/09/11 05:15:28;;;;;;;14.30;8.52;;;18.70;96.40;;;;;;5017713;28;20515;-74
2023/09/11 05:17:55;;;;;;;16.05;9.88;;;18.80;95.60;;;;;;5014517;28;20090;-77
2023/09/11 05:20:23;;;;;;;15.43;8.07;;;19.00;95.70;;;;;;5020273;28;20418;-77
2023/09/11 05:22:50;;;;;;;12.70;6.93;;;19.00;95.30;;;;;;5015489;28;20050;-79
2023/09/11 05:25:19;;;;;;;13.15;8.07;;;18.90;95.00;;;;;;5019502;28;20432;-75
2023/09/11 05:27:48;;;;;;;15.45;7.22;;;18.90;95.50;;;;;;5020360;28;20406;-77
2023/09/11 05:30:16;;;;;;;12.30;7.07;;;18.90;95.20;;;;;;5009782;28;20061;-75
2023/09/11 05:32:43;;;;;;;15.38;7.65;;;18.90;95.30;;;;;;5015777;28;20073;-76
2023/09/11 05:35:10;;;;;;;17.58;7.22;;;19.10;95.10;;;;;;5013379;28;20038;-78
2023/09/11 05:37:38;;;;;;;12.90;7.32;;;19.20;95.10;;;;;;5016615;28;20054;-78
2023/09/11 05:40:07;;;;;;;14.73;7.72;;;19.00;95.50;;;;;;5001165;28;20038;-77
2023/09/11 05:42:34;;;;;;;11.77;6.43;;;19.00;95.70;;;;;;5020245;28;20115;-75
2023/09/11 05:45:01;;;;;;;17.67;8.63;;;19.20;95.80;;;;;;5011442;28;20033;-77
2023/09/11 05:47:29;;;;;;;107.00;63.30;;;19.40;95.30;;;;;;5016532;28;20061;-76
2023/09/11 05:50:00;;;;;;;35.67;16.77;;;19.40;95.00;;;;;;5020064;28;20050;-78
2023/09/11 05:52:27;;;;;;;45.72;28.02;;;19.50;95.30;;;;;;5012957;28;20034;-80
2023/09/11 05:54:55;;;;;;;20.08;11.15;;;19.70;94.80;;;;;;5020892;28;20388;-78
2023/09/11 05:57:22;;;;;;;19.08;10.02;;;19.60;94.60;;;;;;5019428;28;20042;-79
2023/09/11 05:59:49;;;;;;;17.30;8.43;;;19.50;94.70;;;;;;5016151;28;20046;-77
2023/09/11 06:02:16;;;;;;;15.13;8.85;;;19.60;94.60;;;;;;5018613;28;20129;-80
2023/09/11 06:04:43;;;;;;;15.55;8.50;;;19.50;94.80;;;;;;5021140;28;20454;-78
2023/09/11 06:07:11;;;;;;;22.70;8.45;;;19.50;94.60;;;;;;5018915;28;20068;-79
2023/09/11 06:09:39;;;;;;;14.00;7.07;;;19.80;94.70;;;;;;5012439;28;20056;-76
2023/09/11 06:12:06;;;;;;;15.27;7.57;;;19.70;94.10;;;;;;5022092;28;20045;-77
2023/09/11 06:14:37;;;;;;;12.73;6.90;;;19.50;94.40;;;;;;5018295;28;20108;-77
2023/09/11 06:17:05;;;;;;;13.73;8.10;;;19.40;95.10;;;;;;5017696;28;20037;-77
2023/09/11 06:19:32;;;;;;;12.40;7.57;;;19.50;94.90;;;;;;5017101;28;20523;-79
2023/09/11 06:21:59;;;;;;;13.82;7.40;;;19.50;94.70;;;;;;5020942;28;20042;-79
2023/09/11 06:24:27;;;;;;;17.40;8.25;;;19.60;94.60;;;;;;5018467;28;20034;-79
2023/09/11 06:27:06;;;;;;;13.85;7.90;;;19.60;94.60;;;;;;5017823;28;20068;-79
2023/09/11 06:29:34;;;;;;;14.82;8.40;;;19.70;94.10;;;;;;5009758;28;20061;-79
2023/09/11 06:32:02;;;;;;;13.65;8.05;;;19.80;94.00;;;;;;5016787;28;20041;-78
2023/09/11 06:34:33;;;;;;;18.95;8.93;;;19.80;94.00;;;;;;5015311;28;20557;-78
2023/09/11 06:37:00;;;;;;;19.98;8.77;;;19.70;94.00;;;;;;5018503;28;20041;-78
2023/09/11 06:39:28;;;;;;;14.70;7.95;;;19.80;94.20;;;;;;5019985;28;20507;-78
2023/09/11 06:41:55;;;;;;;15.32;7.38;;;20.00;94.00;;;;;;5014579;28;20566;-78
2023/09/11 06:44:23;;;;;;;17.17;7.63;;;20.00;93.70;;;;;;5002951;28;20456;-79
2023/09/11 06:47:10;;;;;;;13.80;6.60;;;19.90;94.00;;;;;;5020156;28;20037;-76
2023/09/11 06:49:37;;;;;;;12.85;7.78;;;20.00;94.00;;;;;;5017159;28;20129;-78
2023/09/11 06:52:20;;;;;;;15.82;8.13;;;20.20;93.60;;;;;;5017855;28;20379;-77
2023/09/11 06:54:54;;;;;;;17.65;7.80;;;20.20;93.60;;;;;;5017205;28;20042;-78
2023/09/11 06:57:23;;;;;;;13.70;7.18;;;20.20;93.60;;;;;;5016610;28;20049;-78
2023/09/11 06:59:53;;;;;;;14.07;6.85;;;20.30;93.70;;;;;;5020198;28;20060;-78
2023/09/11 07:02:24;;;;;;;14.85;7.72;;;20.30;93.80;;;;;;5012182;28;20128;-79
2023/09/11 07:04:58;;;;;;;19.90;8.50;;;20.50;93.10;;;;;;5012467;28;20037;-79
2023/09/11 07:07:25;;;;;;;13.55;7.90;;;20.70;92.80;;;;;;5019610;28;20042;-78
2023/09/11 07:10:15;;;;;;;13.68;8.88;;;20.80;92.60;;;;;;5011771;28;20048;-77
2023/09/11 07:12:49;;;;;;;17.33;8.50;;;21.00;92.30;;;;;;5018952;28;20050;-75
2023/09/11 07:15:29;;;;;;;13.80;7.53;;;20.90;92.10;;;;;;5011153;28;20053;-79
2023/09/11 07:18:00;;;;;;;16.75;7.72;;;20.80;92.20;;;;;;5010711;28;20438;-76
2023/09/11 07:20:33;;;;;;;16.23;8.35;;;20.90;92.20;;;;;;5013467;28;20078;-78
2023/09/11 07:23:00;;;;;;;15.30;8.05;;;21.10;92.00;;;;;;5013341;28;20033;-77
2023/09/11 07:25:28;;;;;;;15.07;7.95;;;21.10;91.90;;;;;;5015001;28;20477;-76
2023/09/11 07:27:55;;;;;;;13.77;8.13;;;21.20;91.70;;;;;;5018573;28;20049;-78
2023/09/11 07:30:23;;;;;;;18.05;10.13;;;21.20;91.30;;;;;;5021818;28;20075;-77
2023/09/11 07:32:52;;;;;;;16.02;8.45;;;21.30;91.30;;;;;;5017451;28;20045;-78
2023/09/11 07:35:20;;;;;;;15.85;9.30;;;21.30;91.00;;;;;;5017370;28;20548;-77
2023/09/11 07:37:48;;;;;;;18.25;8.13;;;21.10;91.20;;;;;;5018503;28;20046;-78
2023/09/11 07:40:15;;;;;;;18.52;8.20;;;21.00;91.60;;;;;;5020209;28;20046;-78
2023/09/11 07:42:43;;;;;;;15.73;7.72;;;21.30;91.30;;;;;;5017619;28;20046;-78
2023/09/11 07:45:35;;;;;;;15.80;7.88;;;21.40;91.10;;;;;;5012047;28;20049;-78
2023/09/11 07:48:08;;;;;;;18.77;8.50;;;21.40;90.90;;;;;;5014633;28;20110;-77
2023/09/11 07:50:37;;;;;;;14.50;7.55;;;21.60;90.90;;;;;;5015074;28;20077;-76
2023/09/11 07:53:08;;;;;;;17.38;8.02;;;21.70;90.40;;;;;;5017252;28;20049;-76
2023/09/11 07:55:37;;;;;;;16.02;7.78;;;21.90;90.40;;;;;;5015651;28;20050;-77
2023/09/11 07:58:04;;;;;;;16.42;7.35;;;22.00;90.20;;;;;;5019609;28;20037;-79
2023/09/11 08:00:32;;;;;;;18.70;7.32;;;22.20;90.20;;;;;;5012578;28;20046;-80
2023/09/11 08:02:59;;;;;;;15.98;6.70;;;22.30;89.90;;;;;;5017990;28;20045;-77
2023/09/11 08:05:27;;;;;;;13.00;7.72;;;22.30;89.30;;;;;;5022134;28;20708;-77
2023/09/11 08:07:55;;;;;;;15.75;8.32;;;22.30;89.20;;;;;;5007533;28;20080;-79
2023/09/11 08:10:22;;;;;;;14.68;6.70;;;22.50;88.90;;;;;;5004597;28;20092;-80
2023/09/11 08:12:50;;;;;;;13.90;7.35;;;22.50;88.50;;;;;;5006056;28;20041;-78
2023/09/11 08:15:17;;;;;;;11.80;6.43;;;22.60;88.00;;;;;;5024471;28;20061;-77
2023/09/11 08:17:44;;;;;;;11.48;6.80;;;22.60;87.20;;;;;;5023348;28;20041;-79
2023/09/11 08:20:14;;;;;;;13.65;6.07;;;22.90;87.30;;;;;;5018936;28;20488;-80
2023/09/11 08:22:42;;;;;;;12.80;6.47;;;23.10;86.80;;;;;;5023828;28;20354;-76
2023/09/11 08:25:12;;;;;;;11.00;5.93;;;23.30;84.00;;;;;;5018547;28;20065;-78
2023/09/11 08:27:39;;;;;;;;;;;23.40;83.40;;;;;;5020506;28;20041;-79
2023/09/11 08:30:07;;;;;;;9.93;4.78;;;23.40;81.60;;;;;;5016279;28;19951;-79
2023/09/11 08:32:34;;;;;;;9.68;4.78;;;23.60;81.20;;;;;;5018494;28;20405;-79
2023/09/11 08:35:02;;;;;;;9.57;5.30;;;23.90;80.90;;;;;;5018573;28;20140;-78
2023/09/11 08:37:30;;;;;;;11.45;5.80;;;24.20;81.10;;;;;;5019418;28;20153;-79
2023/09/11 08:39:57;;;;;;;9.50;4.75;;;24.20;78.00;;;;;;5020071;28;20037;-79
2023/09/11 08:42:24;;;;;;;9.50;4.90;;;24.00;78.30;;;;;;5013555;28;20137;-78
2023/09/11 08:44:52;;;;;;;9.88;5.20;;;24.30;77.60;;;;;;5020919;28;20053;-78
2023/09/11 08:47:29;;;;;;;10.30;5.20;;;24.50;78.80;;;;;;5016855;28;20034;-78
2023/09/11 08:50:04;;;;;;;10.95;4.60;;;24.70;77.20;;;;;;5014431;28;20479;-78
2023/09/11 08:52:35;;;;;;;11.73;4.43;;;24.60;75.50;;;;;;5019959;28;20398;-79
2023/09/11 08:55:07;;;;;;;9.50;4.43;;;24.80;74.90;;;;;;5009887;28;20065;-77
2023/09/11 08:57:35;;;;;;;9.77;4.78;;;24.90;74.20;;;;;;5020226;28;20038;-79
2023/09/11 09:00:08;;;;;;;19.65;6.15;;;25.00;74.50;;;;;;5011291;28;20486;-79
2023/09/11 09:02:36;;;;;;;14.60;4.97;;;25.20;73.40;;;;;;5015053;28;20482;-79
2023/09/11 09:05:06;;;;;;;9.60;4.07;;;25.10;71.60;;;;;;5018872;28;20053;-78
2023/09/11 09:07:34;;;;;;;12.63;4.65;;;25.30;71.10;;;;;;5017403;28;20072;-79
2023/09/11 09:10:05;;;;;;;15.30;4.45;;;25.40;71.00;;;;;;5019257;28;20037;-78
2023/09/11 09:12:33;;;;;;;20.70;5.70;;;25.60;70.80;;;;;;5016082;28;20116;-79
2023/09/11 09:15:04;;;;;;;9.23;5.00;;;25.70;70.40;;;;;;5016787;28;20038;-78
2023/09/11 09:17:31;;;;;;;12.20;4.32;;;25.90;69.50;;;;;;5018291;28;20501;-78
2023/09/11 09:19:59;;;;;;;9.18;3.67;;;25.90;68.00;;;;;;5021988;28;20370;-78
2023/09/11 09:22:26;;;;;;;10.00;3.83;;;25.30;67.10;;;;;;5019961;28;20119;-78
2023/09/11 09:24:54;;;;;;;7.75;4.50;;;25.30;68.20;;;;;;5017560;28;20045;-78
2023/09/11 09:27:25;;;;;;;10.80;4.30;;;25.40;68.90;;;;;;5018456;28;20054;-79
2023/09/11 09:29:52;;;;;;;17.02;4.82;;;25.80;69.10;;;;;;5022063;28;20115;-78
2023/09/11 09:32:19;;;;;;;12.13;4.75;;;25.90;67.60;;;;;;5020456;28;20119;-76
2023/09/11 09:34:54;;;;;;;7.35;4.10;;;26.00;67.60;;;;;;5016929;28;20382;-77
2023/09/11 09:37:22;;;;;;;7.85;4.40;;;26.20;66.50;;;;;;5022023;28;20053;-77
2023/09/11 09:39:50;;;;;;;11.13;5.55;;;26.40;66.10;;;;;;5021781;28;20109;-76
2023/09/11 09:42:17;;;;;;;11.27;6.20;;;26.40;65.90;;;;;;5017038;28;20041;-76
2023/09/11 09:44:49;;;;;;;8.73;4.53;;;26.40;66.40;;;;;;5018340;28;20493;-75
2023/09/11 09:47:19;;;;;;;10.57;4.22;;;25.90;65.30;;;;;;5018926;28;20034;-77
2023/09/11 09:49:57;;;;;;;9.30;4.03;;;26.10;65.50;;;;;;5002910;28;20038;-75
2023/09/11 09:52:29;;;;;;;6.68;3.47;;;26.00;65.10;;;;;;5017914;28;20053;-77
2023/09/11 09:55:07;;;;;;;7.07;3.65;;;25.90;64.70;;;;;;5018747;28;20424;-80
2023/09/11 09:57:41;;;;;;;6.93;3.53;;;26.30;64.50;;;;;;4985779;28;20489;-84
2023/09/11 10:00:16;;;;;;;12.07;3.97;;;26.50;63.90;;;;;;5016739;28;20061;-84
2023/09/11 10:02:44;;;;;;;7.45;3.33;;;26.90;62.90;;;;;;5017598;28;20120;-81
2023/09/11 10:05:13;;;;;;;7.07;3.83;;;27.10;62.10;;;;;;5015409;28;20042;-83
2023/09/11 10:07:45;;;;;;;6.55;3.30;;;26.90;62.80;;;;;;5018238;28;20049;-86
2023/09/11 10:10:21;;;;;;;9.20;3.40;;;27.00;62.50;;;;;;5011242;28;20041;-85
2023/09/11 10:13:03;;;;;;;6.82;3.50;;;26.90;62.50;;;;;;5023863;28;20099;-85
2023/09/11 10:15:35;;;;;;;6.53;3.00;;;27.30;61.60;;;;;;5018589;28;20034;-83
2023/09/11 10:18:07;;;;;;;9.60;3.40;;;27.50;62.50;;;;;;5013910;28;20043;-85
2023/09/11 10:20:35;;;;;;;7.72;3.47;;;27.60;61.60;;;;;;5016962;28;20405;-81
2023/09/11 10:23:04;;;;;;;8.52;3.65;;;27.20;62.50;;;;;;5004803;28;20064;-80
2023/09/11 10:25:39;;;;;;;7.88;3.40;;;27.10;62.50;;;;;;5013179;28;20038;-82
2023/09/11 10:28:17;;;;;;;7.65;3.50;;;27.30;62.40;;;;;;5008006;28;20041;-82
2023/09/11 10:30:55;;;;;;;7.88;4.50;;;27.50;61.40;;;;;;5022450;28;20112;-84
2023/09/11 10:33:35;;;;;;;10.77;3.45;;;27.90;61.30;;;;;;5007870;28;20038;-82
2023/09/11 10:36:15;;;;;;;7.80;3.15;;;27.60;60.50;;;;;;5013486;28;20041;-81
2023/09/11 10:38:45;;;;;;;5.93;3.03;;;27.40;60.20;;;;;;5015112;28;20042;-81
2023/09/11 10:41:13;;;;;;;8.30;3.83;;;27.50;59.90;;;;;;5013810;28;20115;-83
2023/09/11 10:43:40;;;;;;;9.82;3.20;;;27.50;60.60;;;;;;5013312;28;20053;-80
2023/09/11 10:46:32;;;;;;;8.93;3.63;;;27.80;59.80;;;;;;5012072;28;20452;-85
2023/09/11 10:49:19;;;;;;;9.60;3.88;;;27.80;59.70;;;;;;5012031;28;20428;-82
2023/09/11 10:51:48;;;;;;;7.00;3.60;;;27.80;60.10;;;;;;5009970;28;20046;-79
2023/09/11 10:54:21;;;;;;;10.45;4.00;;;27.50;58.70;;;;;;5015119;28;20042;-84
2023/09/11 10:56:50;;;;;;;6.53;3.80;;;27.70;59.10;;;;;;5015914;28;20045;-85
2023/09/11 10:59:23;;;;;;;6.90;3.75;;;27.80;58.50;;;;;;5012934;28;20042;-82
2023/09/11 11:01:52;;;;;;;10.45;3.47;;;28.10;59.00;;;;;;5015477;28;20506;-81
2023/09/11 11:04:23;;;;;;;6.70;3.47;;;28.60;58.50;;;;;;5007798;28;20121;-81
2023/09/11 11:06:53;;;;;;;10.73;3.47;;;28.70;58.00;;;;;;5005422;28;20045;-84
2023/09/11 11:09:28;;;;;;;6.95;3.40;;;29.00;58.10;;;;;;5017648;28;20091;-81
2023/09/11 11:12:04;;;;;;;11.30;3.80;;;29.10;57.80;;;;;;5018378;28;20037;-80
2023/09/11 11:14:33;;;;;;;11.30;3.95;;;29.40;57.60;;;;;;5014054;28;20044;-84
2023/09/11 11:17:05;;;;;;;11.65;5.25;;;29.30;56.20;;;;;;5017426;28;20492;-83
2023/09/11 11:19:36;;;;;;;11.45;3.70;;;29.10;56.80;;;;;;5011482;28;20042;-79
2023/09/11 11:22:07;;;;;;;7.97;3.90;;;29.40;56.60;;;;;;5006700;28;20081;-79
2023/09/11 11:24:55;;;;;;;8.27;3.78;;;29.40;56.70;;;;;;5010862;28;20033;-79
2023/09/11 11:27:23;;;;;;;8.30;3.72;;;29.50;56.30;;;;;;5012352;28;20058;-79
2023/09/11 11:29:52;;;;;;;10.75;3.28;;;29.40;55.80;;;;;;5013494;28;20516;-83
2023/09/11 11:32:21;;;;;;;;;;;29.90;56.10;;;;;;5006330;28;20441;-80
2023/09/11 11:34:50;;;;;;;9.27;3.50;;;30.30;54.30;;;;;;5014961;28;20377;-82
2023/09/11 11:37:21;;;;;;;7.82;3.53;;;30.60;55.00;;;;;;5011892;28;20540;-81
2023/09/11 11:39:49;;;;;;;7.43;3.75;;;30.40;53.00;;;;;;5015834;28;20054;-81
2023/09/11 11:42:17;;;;;;;8.02;3.53;;;30.30;54.60;;;;;;5020414;28;20140;-83
2023/09/11 11:44:44;;;;;;;9.30;3.97;;;30.30;53.50;;;;;;5007563;28;20045;-83
2023/09/11 11:47:12;;;;;;;6.25;3.20;;;30.40;53.60;;;;;;5005259;28;20054;-81
2023/09/11 11:49:39;;;;;;;7.53;3.42;;;30.30;53.60;;;;;;5022578;28;20068;-83
2023/09/11 11:52:07;;;;;;;8.02;3.97;;;30.30;54.80;;;;;;5003757;28;20125;-84
2023/09/11 11:54:35;;;;;;;8.40;3.85;;;30.60;53.40;;;;;;5020590;28;20046;-82
2023/09/11 11:57:04;;;;;;;7.25;3.10;;;30.40;52.80;;;;;;5019970;28;20044;-83
2023/09/11 11:59:33;;;;;;;;;;;30.30;53.20;;;;;;5015001;28;20041;-85
2023/09/11 12:02:01;;;;;;;10.68;3.33;;;30.30;53.60;;;;;;5021810;28;20436;-82
2023/09/11 12:04:29;;;;;;;9.50;3.53;;;30.60;54.10;;;;;;5021175;28;20060;-83
2023/09/11 12:07:02;;;;;;;6.45;3.42;;;30.60;53.10;;;;;;5002552;28;20415;-84
2023/09/11 12:09:30;;;;;;;6.53;3.50;;;31.00;53.20;;;;;;5025386;28;20561;-84
2023/09/11 12:11:57;;;;;;;10.27;3.70;;;30.20;52.10;;;;;;5021685;28;20037;-83
2023/09/11 12:14:25;;;;;;;7.10;3.20;;;30.60;53.00;;;;;;5020795;28;20041;-83
2023/09/11 12:16:53;;;;;;;7.93;3.65;;;30.80;53.30;;;;;;5022047;28;20488;-84
2023/09/11 12:19:22;;;;;;;9.50;3.60;;;30.80;52.90;;;;;;5009293;28;20056;-82
2023/09/11 12:21:55;;;;;;;;;;;30.90;53.10;;;;;;4995633;28;20038;-83
2023/09/11 12:24:22;;;;;;;8.95;3.60;;;30.90;52.50;;;;;;5008676;28;19921;-83
2023/09/11 12:26:50;;;;;;;8.30;3.70;;;31.10;53.00;;;;;;5020370;28;20064;-83
2023/09/11 12:29:21;;;;;;;8.50;3.70;;;31.40;53.10;;;;;;5021864;28;20127;-85
2023/09/11 12:31:49;;;;;;;6.90;3.80;;;31.60;52.50;;;;;;5021406;28;20072;-84
2023/09/11 12:34:17;;;;;;;8.57;3.47;;;31.70;51.70;;;;;;5015066;28;20116;-85
2023/09/11 12:36:45;;;;;;;7.45;3.90;;;31.80;51.70;;;;;;5021731;28;20048;-84
2023/09/11 12:39:12;;;;;;;8.45;3.67;;;31.60;51.00;;;;;;5006020;28;20038;-83
2023/09/11 12:41:40;;;;;;;7.18;3.80;;;31.50;53.00;;;;;;5009656;28;20057;-84
2023/09/11 12:44:08;;;;;;;7.90;3.65;;;31.20;52.20;;;;;;5026392;28;20127;-81
2023/09/11 12:46:36;;;;;;;8.55;4.00;;;31.30;51.40;;;;;;5005604;28;20053;-83
2023/09/11 12:49:09;;;;;;;8.90;3.92;;;31.30;52.00;;;;;;5018883;28;20048;-82
2023/09/11 12:51:36;;;;;;;9.13;4.28;;;31.30;51.20;;;;;;5018148;28;20088;-83
2023/09/11 12:54:09;;;;;;;7.53;3.60;;;31.30;51.40;;;;;;5019744;28;20057;-80